Time;durP1;ratioP1;P1;durP2;ratioP2;P2;SDS_P1;SDS_P2;PMS_P1;PMS_P2;Temp;Humidity;BMP_temperature;BMP_pressure;BME280_temperature;BME280_humidity;BME280_pressure;Samples;Min_cycle;Max_cycle;Signal;HPM_P1;HPM_P2
2021/05/07 00:02:03;;;;;;;5.10;3.60;;;;;;;9.56;64.49;96387.00;5030573;28;20080;-78
2021/05/07 00:04:28;;;;;;;4.80;3.38;;;;;;;9.55;63.73;96379.47;5013278;28;20037;-78
2021/05/07 00:06:53;;;;;;;6.53;3.30;;;;;;;9.60;62.77;96379.47;5030526;28;20026;-78
2021/05/07 00:09:19;;;;;;;5.05;3.50;;;;;;;9.64;63.23;96390.13;5030022;28;20026;-77
2021/05/07 00:11:45;;;;;;;5.78;3.95;;;;;;;9.66;62.79;96388.81;5029776;28;20374;-78
2021/05/07 00:14:11;;;;;;;4.03;3.15;;;;;;;9.64;62.74;96390.91;4996245;28;20068;-78
2021/05/07 00:16:36;;;;;;;5.07;3.88;;;;;;;9.46;63.49;96392.19;5029645;28;20492;-78
2021/05/07 00:19:05;;;;;;;5.95;3.95;;;;;;;9.50;62.87;96388.03;5046106;28;20345;-78
2021/05/07 00:21:31;;;;;;;5.28;3.70;;;;;;;9.55;63.15;96387.25;5030808;28;20025;-78
2021/05/07 00:23:56;;;;;;;6.30;4.28;;;;;;;9.59;63.10;96387.53;5022658;28;20043;-78
2021/05/07 00:26:22;;;;;;;5.80;4.03;;;;;;;9.56;63.05;96381.81;5029668;28;20021;-78
2021/05/07 00:28:47;;;;;;;7.32;4.10;;;;;;;9.51;63.12;96381.00;5029445;28;20084;-78
2021/05/07 00:31:13;;;;;;;5.10;4.00;;;;;;;9.50;62.84;96388.03;5013238;28;20033;-78
2021/05/07 00:33:38;;;;;;;5.32;3.53;;;;;;;9.50;62.59;96384.66;5012997;28;20461;-78
2021/05/07 00:36:04;;;;;;;5.05;3.72;;;;;;;9.43;63.64;96392.69;5013231;28;20029;-78
2021/05/07 00:38:29;;;;;;;6.68;3.97;;;;;;;9.37;63.99;96393.69;5045864;28;20448;-78
2021/05/07 00:40:54;;;;;;;5.47;3.83;;;;;;;9.39;64.14;96391.66;5029743;28;20037;-78
2021/05/07 00:43:20;;;;;;;5.85;4.07;;;;;;;9.69;63.48;96392.75;5029311;28;20556;-78
2021/05/07 00:45:45;;;;;;;6.50;3.90;;;;;;;9.72;63.50;96397.44;5029259;28;20087;-78
2021/05/07 00:48:18;;;;;;;5.38;3.80;;;;;;;9.62;63.50;96397.41;5030852;28;20032;-78
2021/05/07 00:50:48;;;;;;;4.78;3.40;;;;;;;9.72;63.49;96410.44;5028892;28;20547;-78
2021/05/07 00:53:15;;;;;;;6.15;4.53;;;;;;;9.73;63.40;96407.56;5027382;28;20473;-78
2021/05/07 00:55:40;;;;;;;7.25;4.07;;;;;;;9.78;63.71;96411.97;5025775;28;20256;-77
2021/05/07 00:58:06;;;;;;;6.68;4.55;;;;;;;9.73;63.67;96410.16;5043806;28;20065;-78
2021/05/07 01:00:32;;;;;;;6.38;3.80;;;;;;;9.77;63.60;96415.63;5008289;28;20057;-78
2021/05/07 01:02:59;;;;;;;6.40;4.10;;;;;;;9.75;63.89;96415.88;5025781;28;20702;-78
2021/05/07 01:05:25;;;;;;;6.55;4.28;;;;;;;9.70;63.37;96418.47;5028043;28;20029;-78
2021/05/07 01:07:51;;;;;;;6.00;3.97;;;;;;;9.70;63.66;96408.09;5045654;28;20030;-78
2021/05/07 01:10:17;;;;;;;6.57;3.58;;;;;;;9.72;63.87;96416.41;4993059;28;20436;-78
2021/05/07 01:12:43;;;;;;;6.63;4.13;;;;;;;9.74;63.80;96411.72;4997958;28;20061;-78
2021/05/07 01:15:31;;;;;;;5.72;3.58;;;;;;;9.55;63.47;96403.63;5029892;28;20508;-78
2021/05/07 01:17:58;;;;;;;5.47;3.60;;;;;;;9.71;63.04;96393.25;5022734;28;20492;-78
2021/05/07 01:20:28;;;;;;;5.03;3.50;;;;;;;9.53;63.13;96399.72;5029174;28;20064;-78
2021/05/07 01:22:56;;;;;;;7.00;3.80;;;;;;;9.67;63.02;96394.81;5028717;28;20034;-78
2021/05/07 01:25:23;;;;;;;5.75;3.33;;;;;;;9.61;63.39;96385.44;5028613;28;20044;-78
2021/05/07 01:27:52;;;;;;;6.20;4.13;;;;;;;9.56;63.55;96388.81;5044722;28;20533;-78
2021/05/07 01:30:21;;;;;;;4.93;3.13;;;;;;;9.57;63.11;96379.97;5028459;28;20033;-77
2021/05/07 01:32:50;;;;;;;5.95;3.60;;;;;;;9.44;63.83;96368.28;5028411;28;20604;-78
2021/05/07 01:35:25;;;;;;;6.50;3.92;;;;;;;9.36;63.92;96368.75;4995786;28;20179;-78
2021/05/07 01:37:53;;;;;;;4.88;3.30;;;;;;;9.50;63.78;96388.03;5028600;28;20091;-78
2021/05/07 01:40:24;;;;;;;4.00;2.85;;;;;;;9.35;63.57;96382.78;5013035;28;20025;-78
2021/05/07 01:42:50;;;;;;;5.88;3.40;;;;;;;9.51;63.50;96386.19;5012295;28;20111;-78
2021/05/07 01:45:17;;;;;;;6.32;3.75;;;;;;;9.51;63.32;96394.78;5012493;28;20464;-78
2021/05/07 01:47:43;;;;;;;5.45;3.60;;;;;;;9.48;63.09;96397.88;5029452;28;20643;-78
2021/05/07 01:50:11;;;;;;;5.28;3.50;;;;;;;9.43;63.50;96395.28;5028756;28;20057;-78
2021/05/07 01:52:37;;;;;;;5.15;3.45;;;;;;;9.47;63.55;96401.50;5011680;28;20029;-78
2021/05/07 01:55:07;;;;;;;5.78;3.45;;;;;;;9.26;63.36;96405.88;5010893;28;20037;-78
2021/05/07 01:57:34;;;;;;;5.60;3.47;;;;;;;9.36;63.30;96410.34;5038546;28;20033;-78
2021/05/07 02:00:00;;;;;;;5.60;3.83;;;;;;;9.39;63.76;96415.03;5012202;28;20033;-78
2021/05/07 02:02:26;;;;;;;6.15;4.10;;;;;;;9.40;64.05;96426.19;5011937;28;20029;-77
2021/05/07 02:04:51;;;;;;;6.32;4.05;;;;;;;9.33;64.21;96426.44;5028397;28;20353;-78
2021/05/07 02:07:17;;;;;;;6.50;3.85;;;;;;;9.21;64.19;96410.28;5045059;28;20370;-78
2021/05/07 02:09:43;;;;;;;6.13;4.10;;;;;;;9.27;64.62;96412.66;5028291;28;20029;-78
2021/05/07 02:12:08;;;;;;;7.00;4.38;;;;;;;9.33;63.60;96414.22;5028349;28;20574;-78
2021/05/07 02:14:35;;;;;;;6.80;4.18;;;;;;;9.25;64.12;96412.09;5028082;28;20448;-78
2021/05/07 02:17:01;;;;;;;8.23;4.15;;;;;;;9.34;63.86;96420.19;5044812;28;20061;-78
2021/05/07 02:19:27;;;;;;;6.95;4.10;;;;;;;9.32;64.00;96424.84;5028116;28;20049;-78
2021/05/07 02:21:52;;;;;;;7.15;4.15;;;;;;;9.29;64.05;96415.00;5011875;28;20506;-78
2021/05/07 02:24:18;;;;;;;6.28;4.05;;;;;;;9.27;63.63;96423.03;5011444;28;20388;-78
2021/05/07 02:26:43;;;;;;;6.97;4.85;;;;;;;9.34;62.65;96417.59;5045042;28;20029;-78
2021/05/07 02:29:08;;;;;;;6.97;4.30;;;;;;;9.42;63.01;96418.91;5028019;28;20382;-78
2021/05/07 02:31:34;;;;;;;6.30;4.38;;;;;;;9.42;62.91;96427.47;5029466;28;20478;-78
2021/05/07 02:34:00;;;;;;;7.72;4.35;;;;;;;9.53;62.33;96436.88;5044209;28;20030;-78
2021/05/07 02:36:25;;;;;;;6.55;4.28;;;;;;;9.51;62.02;96433.75;5011820;28;20037;-78
2021/05/07 02:38:50;;;;;;;6.45;4.53;;;;;;;9.50;62.04;96429.59;5045823;28;20030;-77
2021/05/07 02:41:16;;;;;;;6.40;4.82;;;;;;;9.52;61.34;96437.13;5015545;28;20034;-78
2021/05/07 02:43:41;;;;;;;6.97;4.45;;;;;;;9.42;62.42;96437.88;5014539;28;20033;-78
2021/05/07 02:46:07;;;;;;;7.28;4.43;;;;;;;9.39;62.45;96435.81;5032289;28;20057;-78
2021/05/07 02:48:32;;;;;;;7.90;4.78;;;;;;;9.40;62.16;96442.56;5015319;28;20413;-78
2021/05/07 02:50:57;;;;;;;9.45;5.10;;;;;;;9.38;62.16;96447.22;5048123;28;20025;-77
2021/05/07 02:53:23;;;;;;;7.72;5.00;;;;;;;9.37;62.26;96438.66;5030627;28;20037;-78
2021/05/07 02:55:48;;;;;;;7.40;5.53;;;;;;;9.37;61.80;96440.44;5029362;28;20432;-78
2021/05/07 02:58:14;;;;;;;6.70;4.63;;;;;;;9.38;61.65;96445.41;5015043;28;20586;-78
2021/05/07 03:00:39;;;;;;;7.20;4.90;;;;;;;9.37;62.48;96443.06;5031359;28;20496;-78
2021/05/07 03:03:04;;;;;;;8.00;4.80;;;;;;;9.32;62.05;96448.22;5014165;28;20377;-78
2021/05/07 03:05:30;;;;;;;7.15;4.90;;;;;;;9.32;62.01;96456.03;5015129;28;20504;-79
2021/05/07 03:07:55;;;;;;;9.48;5.00;;;;;;;9.27;62.49;96441.22;5014783;28;20068;-78
2021/05/07 03:10:21;;;;;;;9.13;4.90;;;;;;;9.28;62.42;96454.97;5048364;28;20431;-78
2021/05/07 03:12:46;;;;;;;7.93;5.65;;;;;;;9.26;62.62;96459.66;5030785;28;20473;-78
2021/05/07 03:15:12;;;;;;;7.50;4.80;;;;;;;9.26;62.45;96463.03;5031686;28;20041;-78
2021/05/07 03:17:38;;;;;;;6.90;4.90;;;;;;;9.28;61.33;96465.38;5029020;28;20033;-78
2021/05/07 03:20:05;;;;;;;6.07;4.45;;;;;;;9.26;62.18;96463.03;5031116;28;20386;-78
2021/05/07 03:22:30;;;;;;;7.80;4.97;;;;;;;9.41;61.78;96475.31;5016100;28;20037;-78
2021/05/07 03:24:55;;;;;;;7.63;4.70;;;;;;;9.45;61.81;96470.38;5031001;28;20033;-78
2021/05/07 03:27:21;;;;;;;7.43;4.55;;;;;;;9.36;62.02;96476.06;5030775;28;20396;-78
2021/05/07 03:29:46;;;;;;;7.15;4.70;;;;;;;9.36;61.74;96473.47;5030637;28;20029;-78
2021/05/07 03:32:12;;;;;;;6.63;4.75;;;;;;;9.20;62.08;96469.22;5031358;28;20056;-78
2021/05/07 03:34:37;;;;;;;9.93;5.93;;;;;;;9.12;62.95;96472.31;5031261;28;20089;-78
2021/05/07 03:37:02;;;;;;;9.30;5.25;;;;;;;9.16;62.30;96486.34;5031702;28;20056;-78
2021/05/07 03:39:29;;;;;;;7.90;5.28;;;;;;;9.16;62.38;96483.75;5031269;28;20436;-78
2021/05/07 03:41:54;;;;;;;6.82;5.07;;;;;;;9.20;62.11;96492.59;5014673;28;20037;-78
2021/05/07 03:44:19;;;;;;;6.75;5.10;;;;;;;9.23;62.40;96499.13;5014214;28;20037;-78
2021/05/07 03:46:45;;;;;;;7.22;4.97;;;;;;;9.27;61.55;96505.34;5031373;28;20042;-78
2021/05/07 03:49:10;;;;;;;8.18;5.10;;;;;;;9.13;62.15;96502.44;5030333;28;20052;-78
2021/05/07 03:51:35;;;;;;;7.07;4.95;;;;;;;9.15;62.42;96506.34;5013817;28;20026;-78
2021/05/07 03:54:01;;;;;;;6.78;4.75;;;;;;;9.09;63.17;96519.56;5030182;28;20022;-78
2021/05/07 03:56:26;;;;;;;8.05;4.82;;;;;;;9.03;62.94;96516.16;5030320;28;20033;-78
2021/05/07 03:58:51;;;;;;;8.48;5.28;;;;;;;9.01;62.60;96523.38;5030843;28;20041;-78
2021/05/07 04:01:17;;;;;;;8.20;5.68;;;;;;;9.06;62.62;96526.00;5014272;28;20037;-78
2021/05/07 04:03:42;;;;;;;7.70;4.95;;;;;;;9.07;62.18;96527.59;5047137;28;20724;-78
2021/05/07 04:06:16;;;;;;;7.20;5.03;;;;;;;9.10;62.52;96536.69;5030660;28;20025;-78
2021/05/07 04:08:43;;;;;;;6.40;4.43;;;;;;;9.09;62.28;96551.50;5030635;28;20033;-78
2021/05/07 04:11:28;;;;;;;6.90;4.80;;;;;;;9.09;62.25;96541.09;5030855;28;20035;-78
2021/05/07 04:13:53;;;;;;;6.45;4.93;;;;;;;8.94;63.04;96546.97;5044759;28;20060;-78
2021/05/07 04:16:19;;;;;;;6.85;4.90;;;;;;;9.03;62.70;96549.91;5031982;28;20034;-78
2021/05/07 04:18:44;;;;;;;6.45;4.38;;;;;;;9.02;62.48;96561.31;5013747;28;20037;-78
2021/05/07 04:21:09;;;;;;;7.18;4.85;;;;;;;9.07;62.14;96553.56;5030114;28;20053;-78
2021/05/07 04:23:35;;;;;;;7.70;5.40;;;;;;;9.09;62.14;96563.69;5013775;28;20045;-78
2021/05/07 04:26:00;;;;;;;7.38;4.75;;;;;;;9.09;61.76;96572.25;5030250;28;20056;-78
2021/05/07 04:28:26;;;;;;;6.50;4.53;;;;;;;9.09;62.19;96561.88;5030425;28;20558;-78
2021/05/07 04:30:51;;;;;;;6.68;4.60;;;;;;;9.04;62.29;96574.81;5013705;28;20025;-78
2021/05/07 04:33:17;;;;;;;7.90;4.75;;;;;;;9.06;62.14;96588.34;5046346;28;20427;-78
2021/05/07 04:35:42;;;;;;;6.47;4.57;;;;;;;9.01;62.08;96585.69;4996984;28;20032;-78
2021/05/07 04:38:08;;;;;;;5.50;4.38;;;;;;;9.00;62.37;96586.75;5029944;28;20025;-78
2021/05/07 04:40:35;;;;;;;6.28;4.75;;;;;;;9.02;61.66;96592.47;5046977;28;20076;-78
2021/05/07 04:43:01;;;;;;;7.80;4.55;;;;;;;9.05;61.36;96597.19;5046241;28;20029;-78
2021/05/07 04:45:28;;;;;;;6.85;4.28;;;;;;;9.04;61.83;96597.41;5029826;28;20409;-78
2021/05/07 04:47:54;;;;;;;6.15;4.90;;;;;;;9.03;62.04;96601.03;5030079;28;20041;-78
2021/05/07 04:50:20;;;;;;;6.90;4.30;;;;;;;8.94;62.47;96606.69;5029243;28;20677;-78
2021/05/07 04:52:45;;;;;;;6.72;4.88;;;;;;;9.03;62.04;96611.44;5029324;28;20036;-78
2021/05/07 04:55:11;;;;;;;7.95;5.20;;;;;;;8.97;61.63;96605.41;5042239;28;20071;-78
2021/05/07 04:57:36;;;;;;;6.25;4.35;;;;;;;9.07;60.60;96612.50;5029933;28;20086;-77
2021/05/07 05:00:03;;;;;;;5.88;4.30;;;;;;;9.02;61.18;96618.44;5028614;28;20512;-78
2021/05/07 05:02:29;;;;;;;6.65;4.43;;;;;;;9.12;59.29;96618.53;5014318;28;20038;-78
2021/05/07 05:04:55;;;;;;;8.48;4.47;;;;;;;9.15;59.57;96632.81;5045028;28;20120;-78
2021/05/07 05:07:21;;;;;;;5.85;4.28;;;;;;;9.10;60.07;96625.78;5028452;28;20029;-78
2021/05/07 05:09:46;;;;;;;5.97;3.78;;;;;;;9.13;59.86;96627.88;5028599;28;20556;-78
2021/05/07 05:12:11;;;;;;;5.88;4.45;;;;;;;9.09;60.93;96639.78;5028138;28;20061;-78
2021/05/07 05:14:37;;;;;;;6.93;4.82;;;;;;;9.08;60.24;96642.63;5011353;28;20063;-78
2021/05/07 05:17:02;;;;;;;5.85;4.18;;;;;;;9.15;59.89;96638.81;5012239;28;20030;-78
2021/05/07 05:19:27;;;;;;;6.18;4.30;;;;;;;9.08;60.68;96643.44;5026382;28;20160;-78
2021/05/07 05:21:53;;;;;;;7.10;4.50;;;;;;;9.16;60.30;96644.78;5044763;28;20477;-78
2021/05/07 05:24:18;;;;;;;6.30;4.85;;;;;;;9.19;59.21;96658.03;5028261;28;20048;-78
2021/05/07 05:26:43;;;;;;;6.25;4.22;;;;;;;9.30;59.72;96656.31;5045773;28;20041;-78
2021/05/07 05:29:13;;;;;;;7.85;4.57;;;;;;;9.37;59.25;96651.72;5029123;28;20495;-78
2021/05/07 05:31:39;;;;;;;6.70;4.53;;;;;;;9.52;58.86;96664.00;5029081;28;20033;-78
2021/05/07 05:34:04;;;;;;;8.00;4.63;;;;;;;9.56;59.00;96665.09;5016195;28;20040;-78
2021/05/07 05:36:29;;;;;;;6.22;4.55;;;;;;;9.67;59.17;96672.94;5009954;28;20061;-78
2021/05/07 05:38:56;;;;;;;8.02;4.60;;;;;;;9.85;58.13;96669.16;5028340;28;20029;-78
2021/05/07 05:41:21;;;;;;;6.97;4.40;;;;;;;9.99;57.26;96661.66;5011267;28;20034;-78
2021/05/07 05:43:48;;;;;;;8.20;5.30;;;;;;;10.03;56.91;96671.31;5010959;28;20039;-78
2021/05/07 05:46:14;;;;;;;6.80;4.88;;;;;;;10.17;56.86;96673.47;5044146;28;20073;-78
2021/05/07 05:48:40;;;;;;;6.57;4.97;;;;;;;10.22;55.04;96666.47;5011245;28;20033;-77
2021/05/07 05:51:08;;;;;;;9.07;6.25;;;;;;;9.63;56.90;96685.66;5045399;28;20021;-79
2021/05/07 05:53:34;;;;;;;7.38;5.47;;;;;;;9.84;53.89;96691.00;4995862;28;20074;-78
2021/05/07 05:55:59;;;;;;;8.18;5.45;;;;;;;9.97;55.03;96692.34;5028214;28;20034;-78
2021/05/07 05:58:25;;;;;;;8.38;5.28;;;;;;;10.18;55.59;96688.84;5044520;28;20038;-78
2021/05/07 06:00:51;;;;;;;9.15;5.20;;;;;;;10.26;55.73;96690.97;5012501;28;20553;-78
2021/05/07 06:03:16;;;;;;;7.63;5.45;;;;;;;10.35;55.61;96690.47;5014310;28;20504;-78
2021/05/07 06:05:42;;;;;;;7.35;5.82;;;;;;;10.73;54.38;96691.13;5010814;28;20077;-78
2021/05/07 06:08:07;;;;;;;6.97;5.63;;;;;;;10.78;52.46;96693.72;5043666;28;20128;-78
2021/05/07 06:10:36;;;;;;;9.75;6.32;;;;;;;10.74;53.73;96695.28;5010094;28;20112;-79
2021/05/07 06:13:02;;;;;;;7.20;5.40;;;;;;;10.71;50.90;96701.81;5008046;28;20037;-78
2021/05/07 06:15:27;;;;;;;8.23;5.32;;;;;;;10.82;51.44;96708.59;4997932;28;20561;-78
2021/05/07 06:17:52;;;;;;;9.60;5.88;;;;;;;11.11;52.37;96713.34;5026818;28;20536;-78
2021/05/07 06:20:18;;;;;;;9.32;6.32;;;;;;;11.43;50.26;96715.72;5047578;28;20037;-79
2021/05/07 06:22:44;;;;;;;7.80;5.30;;;;;;;11.46;51.02;96713.63;5026879;28;20654;-78
2021/05/07 06:25:11;;;;;;;8.13;5.70;;;;;;;11.48;50.01;96716.75;5046023;28;20048;-79
2021/05/07 06:27:42;;;;;;;8.68;6.10;;;;;;;11.42;49.42;96719.34;4997453;28;20049;-79
2021/05/07 06:30:11;;;;;;;8.73;5.95;;;;;;;11.34;48.97;96722.47;5029153;28;20041;-80
2021/05/07 06:32:37;;;;;;;10.05;6.40;;;;;;;11.54;49.18;96720.94;5011790;28;20029;-77
2021/05/07 06:35:04;;;;;;;9.90;6.22;;;;;;;11.84;49.42;96722.75;5030569;28;20364;-78
2021/05/07 06:37:29;;;;;;;10.00;6.13;;;;;;;12.02;49.03;96723.25;5046421;28;20037;-78
2021/05/07 06:39:55;;;;;;;10.45;6.60;;;;;;;12.13;49.49;96728.19;5029583;28;20040;-78
2021/05/07 06:42:21;;;;;;;7.88;5.85;;;;;;;12.50;46.03;96732.25;5012830;28;20025;-78
2021/05/07 06:44:46;;;;;;;9.02;6.28;;;;;;;12.33;45.97;96732.56;5028833;28;20484;-78
2021/05/07 06:47:15;;;;;;;7.82;5.57;;;;;;;12.37;45.95;96724.97;5012723;28;20025;-78
2021/05/07 06:49:43;;;;;;;7.45;5.30;;;;;;;12.43;45.62;96736.97;5011910;28;20515;-79
2021/05/07 06:52:09;;;;;;;8.20;5.38;;;;;;;12.31;46.59;96742.50;5029400;28;20036;-78
2021/05/07 06:54:36;;;;;;;6.47;4.80;;;;;;;12.50;46.15;96741.91;5028475;28;20061;-78
2021/05/07 06:57:01;;;;;;;7.75;5.70;;;;;;;12.74;45.89;96742.06;5007271;28;20034;-79
2021/05/07 06:59:28;;;;;;;7.78;5.07;;;;;;;12.91;44.60;96746.94;5026786;28;20021;-78
2021/05/07 07:01:55;;;;;;;7.25;5.47;;;;;;;13.01;43.85;96756.59;5031223;28;20047;-78
2021/05/07 07:04:21;;;;;;;7.38;5.38;;;;;;;13.22;43.69;96757.22;5011495;28;20120;-77
2021/05/07 07:06:48;;;;;;;7.43;5.13;;;;;;;13.28;43.90;96767.38;5029707;28;20042;-78
2021/05/07 07:09:15;;;;;;;6.78;5.13;;;;;;;13.13;44.18;96761.47;5046469;28;20229;-78
2021/05/07 07:11:42;;;;;;;8.48;5.63;;;;;;;12.96;43.49;96769.66;5032835;28;20033;-78
2021/05/07 07:14:09;;;;;;;6.75;5.30;;;;;;;12.84;45.30;96767.38;5029552;28;20033;-78
2021/05/07 07:16:34;;;;;;;6.97;4.80;;;;;;;12.55;45.41;96776.63;5029484;28;20029;-78
2021/05/07 07:19:01;;;;;;;7.05;5.18;;;;;;;12.62;44.77;96780.78;5006887;28;20025;-78
2021/05/07 07:21:26;;;;;;;6.88;4.85;;;;;;;12.97;44.48;96786.91;5012719;28;20092;-78
2021/05/07 07:23:52;;;;;;;6.60;5.20;;;;;;;13.14;42.97;96783.94;5005935;28;20034;-77
2021/05/07 07:26:17;;;;;;;7.00;4.80;;;;;;;12.95;43.56;96783.78;5026349;28;20623;-77
2021/05/07 07:28:45;;;;;;;7.43;4.95;;;;;;;12.76;42.98;96789.59;5028460;28;20034;-77
2021/05/07 07:31:10;;;;;;;6.22;4.90;;;;;;;12.73;42.23;96798.75;5045229;28;20037;-77
2021/05/07 07:33:35;;;;;;;8.63;4.95;;;;;;;12.60;42.45;96803.78;5027620;28;20021;-78
2021/05/07 07:36:01;;;;;;;7.55;5.28;;;;;;;12.86;42.28;96801.84;5011690;28;20086;-78
2021/05/07 07:38:26;;;;;;;7.35;4.93;;;;;;;13.32;42.00;96811.34;5012765;28;20032;-78
2021/05/07 07:40:52;;;;;;;9.27;5.53;;;;;;;13.75;42.65;96816.81;5013105;28;20025;-78
2021/05/07 07:43:20;;;;;;;7.60;4.93;;;;;;;13.83;40.11;96818.84;5022236;28;20505;-77
2021/05/07 07:45:46;;;;;;;6.55;4.38;;;;;;;13.53;40.86;96817.22;4995706;28;20025;-79
2021/05/07 07:48:12;;;;;;;7.45;5.25;;;;;;;13.57;41.30;96821.63;5012377;28;20052;-78
2021/05/07 07:50:37;;;;;;;7.82;4.85;;;;;;;13.39;39.67;96825.66;5026284;28;20033;-78
2021/05/07 07:53:03;;;;;;;5.80;4.72;;;;;;;13.20;42.62;96824.69;5027562;28;20393;-77
2021/05/07 07:55:28;;;;;;;5.90;3.95;;;;;;;13.59;41.20;96829.19;5029359;28;20041;-80
2021/05/07 07:57:53;;;;;;;7.20;4.72;;;;;;;13.62;41.48;96828.66;5028480;28;20045;-79
2021/05/07 08:00:19;;;;;;;6.32;5.32;;;;;;;14.18;40.46;96830.81;5011259;28;20041;-77
2021/05/07 08:02:46;;;;;;;5.18;3.90;;;;;;;14.42;38.96;96841.34;5046034;28;20796;-78
2021/05/07 08:05:12;;;;;;;5.60;4.13;;;;;;;14.53;37.26;96838.63;5008397;28;20253;-78
2021/05/07 08:07:37;;;;;;;6.60;4.32;;;;;;;14.32;37.61;96851.91;5045308;28;20426;-78
2021/05/07 08:10:04;;;;;;;5.03;3.50;;;;;;;14.15;37.77;96852.31;5028228;28;20037;-78
2021/05/07 08:12:30;;;;;;;5.07;4.00;;;;;;;14.07;37.72;96854.75;5020341;28;20465;-78
2021/05/07 08:14:56;;;;;;;6.03;4.00;;;;;;;14.26;37.76;96862.72;5028158;28;20500;-78
2021/05/07 08:17:21;;;;;;;5.15;4.03;;;;;;;14.30;37.51;96869.75;5028875;28;20038;-77
2021/05/07 08:19:47;;;;;;;7.03;4.88;;;;;;;13.99;36.89;96856.91;5011167;28;20041;-77
2021/05/07 08:22:12;;;;;;;5.28;3.97;;;;;;;14.10;37.01;96870.69;5011284;28;20776;-78
2021/05/07 08:24:37;;;;;;;7.90;4.82;;;;;;;13.99;39.84;96877.84;4994821;28;20040;-78
2021/05/07 08:27:03;;;;;;;5.75;3.83;;;;;;;13.97;38.04;96876.56;5022439;28;20407;-78
2021/05/07 08:29:28;;;;;;;5.07;4.10;;;;;;;14.21;38.37;96876.66;5009396;28;20473;-78
2021/05/07 08:31:54;;;;;;;5.15;4.00;;;;;;;14.33;35.48;96866.59;5027785;28;20064;-78
2021/05/07 08:34:21;;;;;;;6.82;4.00;;;;;;;14.38;34.37;96882.25;5009144;28;20039;-78
2021/05/07 08:36:47;;;;;;;4.43;3.55;;;;;;;14.49;36.93;96890.03;5027349;28;20033;-78
2021/05/07 08:39:13;;;;;;;5.45;4.05;;;;;;;14.95;35.68;96885.13;5030050;28;20036;-78
2021/05/07 08:41:43;;;;;;;6.07;4.43;;;;;;;14.70;35.06;96891.44;5004626;28;20029;-78
2021/05/07 08:44:09;;;;;;;9.45;4.25;;;;;;;15.03;34.42;96896.03;5025926;28;20028;-77
2021/05/07 08:46:35;;;;;;;5.43;3.63;;;;;;;15.02;34.42;96889.25;5010670;28;20540;-78
2021/05/07 08:49:01;;;;;;;6.82;3.72;;;;;;;14.98;34.31;96896.91;5024499;28;20401;-79
2021/05/07 08:51:26;;;;;;;6.28;3.90;;;;;;;14.46;33.13;96899.19;5026669;28;20041;-78
2021/05/07 08:53:51;;;;;;;5.47;4.15;;;;;;;13.59;36.10;96905.03;5026225;28;20420;-79
2021/05/07 08:56:17;;;;;;;5.78;4.18;;;;;;;13.38;35.22;96909.59;5009099;28;20034;-79
2021/05/07 08:58:45;;;;;;;5.65;4.10;;;;;;;12.78;35.94;96914.72;5024727;28;20699;-78
2021/05/07 09:01:13;;;;;;;6.82;3.92;;;;;;;13.68;36.09;96916.53;5010985;28;20459;-78
2021/05/07 09:03:39;;;;;;;6.88;3.70;;;;;;;13.98;37.29;96902.47;4994255;28;20033;-77
2021/05/07 09:06:14;;;;;;;6.25;3.92;;;;;;;13.92;33.36;96908.03;5011378;28;20427;-77
2021/05/07 09:08:40;;;;;;;4.78;3.88;;;;;;;14.73;35.75;96906.56;5028496;28;20026;-77
2021/05/07 09:11:06;;;;;;;5.88;3.55;;;;;;;15.11;32.80;96914.59;5009752;28;20392;-78
2021/05/07 09:13:33;;;;;;;4.85;3.63;;;;;;;14.84;32.22;96909.09;5020866;28;20022;-77
2021/05/07 09:16:05;;;;;;;3.95;3.30;;;;;;;14.81;36.74;96926.16;5027891;28;20040;-79
2021/05/07 09:18:51;;;;;;;4.93;3.85;;;;;;;14.00;33.00;96917.88;5011917;28;20033;-78
2021/05/07 09:21:17;;;;;;;5.72;3.55;;;;;;;13.81;33.37;96923.78;4993551;28;20151;-78
2021/05/07 09:23:46;;;;;;;5.07;3.72;;;;;;;13.63;34.97;96940.88;5005446;28;20172;-77
2021/05/07 09:26:12;;;;;;;4.38;3.42;;;;;;;13.21;35.09;96936.84;5009574;28;20354;-78
2021/05/07 09:28:38;;;;;;;4.72;3.10;;;;;;;13.19;35.55;96938.16;5041977;28;20247;-79
2021/05/07 09:31:17;;;;;;;5.95;4.15;;;;;;;12.43;35.17;96945.06;5043824;28;20064;-78
2021/05/07 09:33:46;;;;;;;5.50;3.70;;;;;;;12.37;35.43;96962.56;5009191;28;20037;-77
2021/05/07 09:36:32;;;;;;;4.53;3.50;;;;;;;11.94;36.85;96949.75;5010183;28;20030;-78
2021/05/07 09:39:03;;;;;;;6.30;4.10;;;;;;;12.34;35.95;96948.22;5010708;28;20037;-78
2021/05/07 09:41:39;;;;;;;6.22;3.28;;;;;;;11.99;36.92;96956.78;5025935;28;20072;-78
2021/05/07 09:44:12;;;;;;;5.13;3.55;;;;;;;12.53;36.76;96952.91;5008831;28;20616;-79
2021/05/07 09:46:40;;;;;;;5.80;3.83;;;;;;;13.12;37.46;96959.34;5026693;28;20068;-78
2021/05/07 09:49:09;;;;;;;7.55;3.60;;;;;;;13.42;35.52;96961.13;5009929;28;20544;-77
2021/05/07 09:51:40;;;;;;;13.35;4.82;;;;;;;14.02;35.25;96957.69;5027197;28;20044;-78
2021/05/07 09:54:09;;;;;;;5.45;3.55;;;;;;;14.37;36.20;96959.25;5021585;28;20022;-78
2021/05/07 09:56:36;;;;;;;5.43;3.20;;;;;;;14.52;34.00;96966.22;5036521;28;20048;-79
2021/05/07 09:59:03;;;;;;;5.47;3.17;;;;;;;15.25;37.38;96945.34;5007112;28;20018;-77
2021/05/07 10:01:29;;;;;;;4.47;2.90;;;;;;;15.81;36.08;96942.06;5026990;28;20080;-77
2021/05/07 10:03:57;;;;;;;2.97;2.35;;;;;;;16.33;33.22;96957.09;5042911;28;20037;-77
2021/05/07 10:06:23;;;;;;;2.35;2.15;;;;;;;16.35;33.42;96944.44;5027201;28;20155;-77
2021/05/07 10:08:50;;;;;;;3.15;2.08;;;;;;;16.23;31.01;96937.03;5023929;28;20120;-78
2021/05/07 10:11:18;;;;;;;2.85;2.20;;;;;;;15.14;30.20;96963.06;5026366;28;20025;-77
2021/05/07 10:13:46;;;;;;;4.07;2.20;;;;;;;15.46;31.87;96959.03;5006397;28;20615;-78
2021/05/07 10:16:13;;;;;;;3.03;2.20;;;;;;;14.95;32.73;96969.00;5038687;28;20493;-77
2021/05/07 10:18:41;;;;;;;4.18;2.90;;;;;;;14.82;34.96;96984.59;5043093;28;20033;-77
2021/05/07 10:21:14;;;;;;;3.38;2.83;;;;;;;14.23;36.97;96985.28;5010580;28;20536;-78
2021/05/07 10:23:51;;;;;;;3.25;2.58;;;;;;;14.11;37.44;96999.78;5009627;28;20056;-76
2021/05/07 10:26:18;;;;;;;3.20;2.65;;;;;;;14.76;39.25;97002.22;5010211;28;20033;-77
2021/05/07 10:28:53;;;;;;;5.30;2.88;;;;;;;14.08;37.93;97013.41;5003354;28;20030;-77
2021/05/07 10:31:21;;;;;;;4.72;2.35;;;;;;;14.35;38.92;97020.84;5010083;28;20033;-77
2021/05/07 10:34:03;;;;;;;3.53;2.15;;;;;;;13.82;41.18;97037.09;5022966;28;20034;-78
2021/05/07 10:36:39;;;;;;;3.17;2.33;;;;;;;13.75;41.71;97044.44;5010404;28;20075;-77
2021/05/07 10:39:18;;;;;;;3.55;1.90;;;;;;;13.24;41.63;97072.25;5026653;28;20121;-78
2021/05/07 10:41:44;;;;;;;4.70;2.10;;;;;;;12.92;42.59;97077.78;5027057;28;20033;-78
2021/05/07 10:44:11;;;;;;;3.38;2.50;;;;;;;12.28;46.17;97107.69;5025334;28;20564;-78
2021/05/07 10:46:36;;;;;;;3.05;2.60;;;;;;;11.95;47.56;97122.72;5026043;28;20485;-79
2021/05/07 10:49:02;;;;;;;3.35;2.30;;;;;;;10.82;50.54;97117.47;5025494;28;20124;-77
2021/05/07 10:51:28;;;;;;;3.08;2.58;;;;;;;10.56;52.64;97126.09;5023722;28;20075;-78
2021/05/07 10:54:14;;;;;;;3.95;3.10;;;;;;;9.84;57.50;97100.00;5024558;28;20028;-78
2021/05/07 10:56:43;;;;;;;4.68;3.20;;;;;;;10.05;58.09;97087.25;4992217;28;20374;-78
2021/05/07 10:59:14;;;;;;;4.65;2.58;;;;;;;10.52;55.65;97086.75;5025644;28;20464;-78
2021/05/07 11:01:40;;;;;;;5.88;3.00;;;;;;;11.49;55.79;97078.09;5022669;28;20044;-78
2021/05/07 11:04:08;;;;;;;5.32;3.42;;;;;;;12.35;54.03;97082.94;5031175;28;20477;-78
2021/05/07 11:06:37;;;;;;;3.92;3.00;;;;;;;12.95;51.26;97092.13;5029285;28;20033;-78
2021/05/07 11:09:14;;;;;;;3.45;2.67;;;;;;;13.31;50.08;97079.81;5028919;28;20234;-77
2021/05/07 11:11:39;;;;;;;3.00;2.42;;;;;;;13.90;49.10;97086.25;4998453;28;20013;-78
2021/05/07 11:14:08;;;;;;;4.38;2.97;;;;;;;14.13;49.58;97090.06;5027743;28;20030;-78
2021/05/07 11:16:41;;;;;;;6.13;3.25;;;;;;;14.11;49.90;97094.03;5029245;28;20443;-77
2021/05/07 11:19:07;;;;;;;4.38;2.90;;;;;;;14.48;50.46;97085.72;5029488;28;20646;-77
2021/05/07 11:21:33;;;;;;;5.43;3.30;;;;;;;14.75;52.90;97093.19;4993534;28;20037;-78
2021/05/07 11:23:59;;;;;;;5.53;3.17;;;;;;;15.06;44.61;97090.31;5024902;28;20045;-78
2021/05/07 11:26:37;;;;;;;4.00;2.92;;;;;;;14.66;48.32;97086.16;5013333;28;20021;-77
2021/05/07 11:29:03;;;;;;;4.47;3.45;;;;;;;14.82;52.61;97098.09;5027084;28;20083;-78
2021/05/07 11:31:29;;;;;;;4.80;2.97;;;;;;;14.47;50.24;97097.25;5013519;28;20445;-79
2021/05/07 11:33:54;;;;;;;5.18;4.25;;;;;;;13.95;50.93;97093.28;5028506;28;20090;-78
2021/05/07 11:36:20;;;;;;;7.28;4.22;;;;;;;13.68;50.22;97104.91;4996545;28;20421;-79